Pagrindinis puslapis
METAR-TAF:

METAR-TAF

Oro uostai :

Ahras, Turkija

platuma: 39-39-16N, ilguma: 43-01-38E, Aukštis: 1665 m

Dabartinis oras

Ataskaita buvo paskelbta 31 minutes, ne 08:50 UTC
Vėjas 4 kt nuo kintamojo kryptimis
Temperatūra 23°C
Drėgmė 29%
Slėgis 1019 hPa
Matomumas 10 km arba daugiau
Mažai debesys ne aukštis 4000 ft

METAR: LTCO 130850Z VRB04KT 9999 FEW040 23/04 Q1019

Laikas: 12:21 (09:21 UTC)

Prognozė

Ataskaita buvo paskelbta 1 valandą ir 41 minutes, ne 07:40 UTC
Prognozė galioja nuo 13 metu 09 UTC su 13 metu 18 UTC
Vėjas 2 kt nuo kintamojo kryptimis
Matomumas 10 km arba daugiau
Mažai debesys ne aukštis 4000 ft
Tapsmas
nuo 13 metu 09 UTC su 13 metu 11 UTC
Vėjas 12 kt iš Pietvakarių
Tapsmas
nuo 13 metu 16 UTC su 13 metu 18 UTC
Vėjas 2 kt nuo kintamojo kryptimis
Matomumas 10 km arba daugiau
nėra debesų žemiau 1500 m ir nėra kamuolinių lietaus debesų

TAF: LTCO 130740Z 1309/1318 VRB02KT 9999 FEW040 BECMG 1309/1311 22012KT BECMG 1316/1318 VRB02KT CAVOK

Orai ataskaitas ir orų prognozės (METAR, TAF).

turimą stotys yra geltonos ir raudonos taškus žemėlapyje.

Perkelti pele per norėdami pamatyti stoties vardą.

Tada spustelėkite, norėdami matyti oro stebėjimo ir prognozės.

Norėdami pakeisti žemėlapį: spustelėkite ant žalios mygtukų su juodo kryžiaus žemyn,; žalią mygtuką su brūkšneliu, jei norite nutolinti; arba žalių rodyklių gretimoms žemėlapius.


METAR-TAF: